sensor_id;sensor_type;location;lat;lon;timestamp;P1;durP1;ratioP1;P2;durP2;ratioP2
75858;SDS011;64504;51.308;8.620;2022-11-21T00:00:44;3.08;;;1.15;;
75858;SDS011;64504;51.308;8.620;2022-11-21T00:03:11;0.73;;;0.73;;
75858;SDS011;64504;51.308;8.620;2022-11-21T00:05:41;0.45;;;0.45;;
75858;SDS011;64504;51.308;8.620;2022-11-21T00:08:08;0.70;;;0.70;;
75858;SDS011;64504;51.308;8.620;2022-11-21T00:10:35;1.02;;;0.60;;
75858;SDS011;64504;51.308;8.620;2022-11-21T00:13:01;0.50;;;0.50;;
75858;SDS011;64504;51.308;8.620;2022-11-21T00:15:31;0.70;;;0.70;;
75858;SDS011;64504;51.308;8.620;2022-11-21T00:17:58;0.65;;;0.63;;
75858;SDS011;64504;51.308;8.620;2022-11-21T00:20:26;0.65;;;0.65;;
75858;SDS011;64504;51.308;8.620;2022-11-21T00:22:52;0.90;;;0.85;;
75858;SDS011;64504;51.308;8.620;2022-11-21T00:25:17;0.88;;;0.88;;
75858;SDS011;64504;51.308;8.620;2022-11-21T00:27:43;1.00;;;0.63;;
75858;SDS011;64504;51.308;8.620;2022-11-21T00:30:09;1.48;;;1.10;;
75858;SDS011;64504;51.308;8.620;2022-11-21T00:32:35;1.55;;;0.50;;
75858;SDS011;64504;51.308;8.620;2022-11-21T00:35:01;2.85;;;1.20;;
75858;SDS011;64504;51.308;8.620;2022-11-21T00:37:26;0.93;;;0.93;;
75858;SDS011;64504;51.308;8.620;2022-11-21T00:39:52;0.82;;;0.82;;
75858;SDS011;64504;51.308;8.620;2022-11-21T00:42:18;2.28;;;1.15;;
75858;SDS011;64504;51.308;8.620;2022-11-21T00:44:43;1.73;;;1.63;;
75858;SDS011;64504;51.308;8.620;2022-11-21T00:47:09;0.93;;;0.93;;
75858;SDS011;64504;51.308;8.620;2022-11-21T00:49:35;1.60;;;1.08;;
75858;SDS011;64504;51.308;8.620;2022-11-21T00:52:01;1.60;;;1.50;;
75858;SDS011;64504;51.308;8.620;2022-11-21T00:54:26;1.95;;;1.80;;
75858;SDS011;64504;51.308;8.620;2022-11-21T00:56:52;2.42;;;2.22;;
75858;SDS011;64504;51.308;8.620;2022-11-21T00:59:17;3.30;;;1.90;;
75858;SDS011;64504;51.308;8.620;2022-11-21T01:01:43;2.00;;;1.90;;
75858;SDS011;64504;51.308;8.620;2022-11-21T01:04:09;3.08;;;1.38;;
75858;SDS011;64504;51.308;8.620;2022-11-21T01:06:38;3.13;;;2.03;;
75858;SDS011;64504;51.308;8.620;2022-11-21T01:09:03;1.52;;;1.42;;
75858;SDS011;64504;51.308;8.620;2022-11-21T01:11:29;2.55;;;1.95;;
75858;SDS011;64504;51.308;8.620;2022-11-21T01:13:55;3.65;;;1.83;;
75858;SDS011;64504;51.308;8.620;2022-11-21T01:16:21;2.20;;;1.48;;
75858;SDS011;64504;51.308;8.620;2022-11-21T01:18:48;0.80;;;0.80;;
75858;SDS011;64504;51.308;8.620;2022-11-21T01:21:20;0.98;;;0.82;;
75858;SDS011;64504;51.308;8.620;2022-11-21T01:23:50;1.20;;;1.10;;
75858;SDS011;64504;51.308;8.620;2022-11-21T01:26:20;0.65;;;0.65;;
75858;SDS011;64504;51.308;8.620;2022-11-21T01:28:47;0.73;;;0.70;;
75858;SDS011;64504;51.308;8.620;2022-11-21T01:31:26;2.53;;;1.45;;
75858;SDS011;64504;51.308;8.620;2022-11-21T01:33:53;1.30;;;1.20;;
75858;SDS011;64504;51.308;8.620;2022-11-21T01:36:20;0.98;;;0.90;;
75858;SDS011;64504;51.308;8.620;2022-11-21T01:38:47;0.95;;;0.88;;
75858;SDS011;64504;51.308;8.620;2022-11-21T01:41:17;1.02;;;0.95;;
75858;SDS011;64504;51.308;8.620;2022-11-21T01:43:44;1.10;;;0.95;;
75858;SDS011;64504;51.308;8.620;2022-11-21T01:46:12;1.30;;;1.17;;
75858;SDS011;64504;51.308;8.620;2022-11-21T01:48:43;1.75;;;1.17;;
75858;SDS011;64504;51.308;8.620;2022-11-21T01:51:18;1.23;;;1.13;;
75858;SDS011;64504;51.308;8.620;2022-11-21T01:53:50;0.93;;;0.40;;
75858;SDS011;64504;51.308;8.620;2022-11-21T01:56:19;0.80;;;0.80;;
75858;SDS011;64504;51.308;8.620;2022-11-21T01:58:45;0.95;;;0.95;;
75858;SDS011;64504;51.308;8.620;2022-11-21T02:01:12;1.00;;;0.95;;
75858;SDS011;64504;51.308;8.620;2022-11-21T02:03:37;0.75;;;0.75;;
75858;SDS011;64504;51.308;8.620;2022-11-21T02:06:05;0.47;;;0.47;;
75858;SDS011;64504;51.308;8.620;2022-11-21T02:08:31;0.90;;;0.82;;
75858;SDS011;64504;51.308;8.620;2022-11-21T02:13:26;0.68;;;0.68;;
75858;SDS011;64504;51.308;8.620;2022-11-21T02:15:52;0.60;;;0.60;;
75858;SDS011;64504;51.308;8.620;2022-11-21T02:18:17;0.80;;;0.80;;
75858;SDS011;64504;51.308;8.620;2022-11-21T02:20:44;0.50;;;0.50;;
75858;SDS011;64504;51.308;8.620;2022-11-21T02:25:52;0.45;;;0.43;;
75858;SDS011;64504;51.308;8.620;2022-11-21T02:28:19;1.25;;;0.75;;
75858;SDS011;64504;51.308;8.620;2022-11-21T02:30:47;1.38;;;0.70;;
75858;SDS011;64504;51.308;8.620;2022-11-21T02:33:14;0.90;;;0.90;;
75858;SDS011;64504;51.308;8.620;2022-11-21T02:35:39;1.65;;;0.90;;
75858;SDS011;64504;51.308;8.620;2022-11-21T02:38:06;0.43;;;0.43;;
75858;SDS011;64504;51.308;8.620;2022-11-21T02:40:40;1.35;;;0.57;;
75858;SDS011;64504;51.308;8.620;2022-11-21T02:45:34;0.40;;;0.40;;
75858;SDS011;64504;51.308;8.620;2022-11-21T02:48:03;0.65;;;0.43;;
75858;SDS011;64504;51.308;8.620;2022-11-21T02:50:33;0.43;;;0.30;;
75858;SDS011;64504;51.308;8.620;2022-11-21T02:53:00;0.80;;;0.63;;
75858;SDS011;64504;51.308;8.620;2022-11-21T02:55:25;1.08;;;0.68;;
75858;SDS011;64504;51.308;8.620;2022-11-21T02:57:51;0.60;;;0.60;;
75858;SDS011;64504;51.308;8.620;2022-11-21T03:00:17;1.00;;;0.60;;
75858;SDS011;64504;51.308;8.620;2022-11-21T03:02:43;0.38;;;0.38;;
75858;SDS011;64504;51.308;8.620;2022-11-21T03:05:09;0.32;;;0.32;;
75858;SDS011;64504;51.308;8.620;2022-11-21T03:07:35;0.50;;;0.50;;
75858;SDS011;64504;51.308;8.620;2022-11-21T03:10:01;0.60;;;0.60;;
75858;SDS011;64504;51.308;8.620;2022-11-21T03:12:26;0.43;;;0.43;;
75858;SDS011;64504;51.308;8.620;2022-11-21T03:14:52;0.68;;;0.68;;
75858;SDS011;64504;51.308;8.620;2022-11-21T03:17:17;0.93;;;0.57;;
75858;SDS011;64504;51.308;8.620;2022-11-21T03:19:43;0.77;;;0.77;;
75858;SDS011;64504;51.308;8.620;2022-11-21T03:22:08;0.52;;;0.52;;
75858;SDS011;64504;51.308;8.620;2022-11-21T03:24:35;0.60;;;0.60;;
75858;SDS011;64504;51.308;8.620;2022-11-21T03:27:01;0.50;;;0.50;;
75858;SDS011;64504;51.308;8.620;2022-11-21T03:29:28;0.50;;;0.50;;
75858;SDS011;64504;51.308;8.620;2022-11-21T03:31:53;1.88;;;0.80;;
75858;SDS011;64504;51.308;8.620;2022-11-21T03:34:19;0.70;;;0.70;;
75858;SDS011;64504;51.308;8.620;2022-11-21T03:36:45;0.70;;;0.70;;
75858;SDS011;64504;51.308;8.620;2022-11-21T03:39:11;0.70;;;0.68;;
75858;SDS011;64504;51.308;8.620;2022-11-21T03:41:36;0.40;;;0.40;;
75858;SDS011;64504;51.308;8.620;2022-11-21T03:44:03;0.80;;;0.70;;
75858;SDS011;64504;51.308;8.620;2022-11-21T03:46:31;0.50;;;0.50;;
75858;SDS011;64504;51.308;8.620;2022-11-21T03:48:57;0.65;;;0.60;;
75858;SDS011;64504;51.308;8.620;2022-11-21T03:51:23;0.93;;;0.93;;
75858;SDS011;64504;51.308;8.620;2022-11-21T03:53:48;0.80;;;0.80;;
75858;SDS011;64504;51.308;8.620;2022-11-21T03:56:14;1.50;;;0.90;;
75858;SDS011;64504;51.308;8.620;2022-11-21T03:58:40;0.45;;;0.45;;
75858;SDS011;64504;51.308;8.620;2022-11-21T04:01:06;1.17;;;1.08;;
75858;SDS011;64504;51.308;8.620;2022-11-21T04:03:32;0.93;;;0.63;;
75858;SDS011;64504;51.308;8.620;2022-11-21T04:05:57;0.65;;;0.65;;
75858;SDS011;64504;51.308;8.620;2022-11-21T04:08:23;0.57;;;0.57;;
75858;SDS011;64504;51.308;8.620;2022-11-21T04:10:49;1.58;;;0.60;;
75858;SDS011;64504;51.308;8.620;2022-11-21T04:13:16;1.17;;;0.57;;
75858;SDS011;64504;51.308;8.620;2022-11-21T04:15:42;0.63;;;0.50;;
75858;SDS011;64504;51.308;8.620;2022-11-21T04:18:08;0.22;;;0.22;;
75858;SDS011;64504;51.308;8.620;2022-11-21T04:20:34;0.65;;;0.65;;
75858;SDS011;64504;51.308;8.620;2022-11-21T04:23:00;0.90;;;0.90;;
75858;SDS011;64504;51.308;8.620;2022-11-21T04:25:25;1.05;;;0.68;;
75858;SDS011;64504;51.308;8.620;2022-11-21T04:27:54;1.33;;;0.73;;
75858;SDS011;64504;51.308;8.620;2022-11-21T04:30:20;0.75;;;0.75;;
75858;SDS011;64504;51.308;8.620;2022-11-21T04:32:46;1.05;;;0.70;;
75858;SDS011;64504;51.308;8.620;2022-11-21T04:35:13;0.80;;;0.80;;
75858;SDS011;64504;51.308;8.620;2022-11-21T04:37:39;0.75;;;0.75;;
75858;SDS011;64504;51.308;8.620;2022-11-21T04:40:04;0.70;;;0.70;;
75858;SDS011;64504;51.308;8.620;2022-11-21T04:42:30;0.80;;;0.80;;
75858;SDS011;64504;51.308;8.620;2022-11-21T04:44:55;0.52;;;0.52;;
75858;SDS011;64504;51.308;8.620;2022-11-21T04:47:21;0.90;;;0.90;;
75858;SDS011;64504;51.308;8.620;2022-11-21T04:49:46;1.98;;;1.00;;
75858;SDS011;64504;51.308;8.620;2022-11-21T04:52:12;1.13;;;0.90;;
75858;SDS011;64504;51.308;8.620;2022-11-21T04:54:37;0.73;;;0.70;;
75858;SDS011;64504;51.308;8.620;2022-11-21T04:57:02;0.82;;;0.82;;
75858;SDS011;64504;51.308;8.620;2022-11-21T04:59:28;4.38;;;0.95;;
75858;SDS011;64504;51.308;8.620;2022-11-21T05:01:54;1.35;;;1.23;;
75858;SDS011;64504;51.308;8.620;2022-11-21T05:04:19;1.10;;;1.02;;
75858;SDS011;64504;51.308;8.620;2022-11-21T05:06:45;1.50;;;1.40;;
75858;SDS011;64504;51.308;8.620;2022-11-21T05:09:10;1.13;;;1.08;;
75858;SDS011;64504;51.308;8.620;2022-11-21T05:11:38;0.80;;;0.80;;
75858;SDS011;64504;51.308;8.620;2022-11-21T05:14:22;1.10;;;1.05;;
75858;SDS011;64504;51.308;8.620;2022-11-21T05:16:50;1.15;;;1.08;;
75858;SDS011;64504;51.308;8.620;2022-11-21T05:19:16;1.08;;;1.08;;
75858;SDS011;64504;51.308;8.620;2022-11-21T05:21:42;0.75;;;0.75;;
75858;SDS011;64504;51.308;8.620;2022-11-21T05:24:07;3.08;;;1.00;;
75858;SDS011;64504;51.308;8.620;2022-11-21T05:26:33;0.80;;;0.80;;
75858;SDS011;64504;51.308;8.620;2022-11-21T05:28:58;0.68;;;0.68;;
75858;SDS011;64504;51.308;8.620;2022-11-21T05:31:24;0.60;;;0.60;;
75858;SDS011;64504;51.308;8.620;2022-11-21T05:33:49;0.68;;;0.68;;
75858;SDS011;64504;51.308;8.620;2022-11-21T05:36:16;0.63;;;0.60;;
75858;SDS011;64504;51.308;8.620;2022-11-21T05:38:41;0.43;;;0.43;;
75858;SDS011;64504;51.308;8.620;2022-11-21T05:41:07;0.50;;;0.50;;
75858;SDS011;64504;51.308;8.620;2022-11-21T05:43:32;0.85;;;0.82;;
75858;SDS011;64504;51.308;8.620;2022-11-21T05:46:20;0.47;;;0.47;;
75858;SDS011;64504;51.308;8.620;2022-11-21T05:48:47;0.47;;;0.47;;
75858;SDS011;64504;51.308;8.620;2022-11-21T05:51:14;0.73;;;0.73;;
75858;SDS011;64504;51.308;8.620;2022-11-21T05:53:40;0.77;;;0.77;;
75858;SDS011;64504;51.308;8.620;2022-11-21T05:56:07;1.20;;;0.95;;
75858;SDS011;64504;51.308;8.620;2022-11-21T05:58:34;0.75;;;0.75;;
75858;SDS011;64504;51.308;8.620;2022-11-21T06:01:00;0.80;;;0.80;;
75858;SDS011;64504;51.308;8.620;2022-11-21T06:03:26;0.70;;;0.70;;
75858;SDS011;64504;51.308;8.620;2022-11-21T06:06:11;1.20;;;0.80;;
75858;SDS011;64504;51.308;8.620;2022-11-21T06:08:41;0.73;;;0.73;;
75858;SDS011;64504;51.308;8.620;2022-11-21T06:11:09;1.58;;;1.02;;
75858;SDS011;64504;51.308;8.620;2022-11-21T06:13:35;7.15;;;3.42;;
75858;SDS011;64504;51.308;8.620;2022-11-21T06:16:02;9.63;;;5.93;;
75858;SDS011;64504;51.308;8.620;2022-11-21T06:18:34;3.00;;;1.70;;
75858;SDS011;64504;51.308;8.620;2022-11-21T06:21:02;1.33;;;1.27;;
75858;SDS011;64504;51.308;8.620;2022-11-21T06:23:29;1.88;;;1.20;;
75858;SDS011;64504;51.308;8.620;2022-11-21T06:25:55;1.17;;;1.02;;
75858;SDS011;64504;51.308;8.620;2022-11-21T06:28:22;2.78;;;2.22;;
75858;SDS011;64504;51.308;8.620;2022-11-21T06:30:48;1.10;;;0.90;;
75858;SDS011;64504;51.308;8.620;2022-11-21T06:33:16;0.90;;;0.82;;
75858;SDS011;64504;51.308;8.620;2022-11-21T06:35:42;0.93;;;0.90;;
75858;SDS011;64504;51.308;8.620;2022-11-21T06:38:08;0.85;;;0.85;;
75858;SDS011;64504;51.308;8.620;2022-11-21T06:40:39;1.10;;;1.00;;
75858;SDS011;64504;51.308;8.620;2022-11-21T06:43:04;1.10;;;1.00;;
75858;SDS011;64504;51.308;8.620;2022-11-21T06:45:33;1.05;;;1.05;;
75858;SDS011;64504;51.308;8.620;2022-11-21T06:48:00;2.25;;;1.25;;
75858;SDS011;64504;51.308;8.620;2022-11-21T06:50:27;1.08;;;1.08;;
75858;SDS011;64504;51.308;8.620;2022-11-21T06:52:55;1.92;;;1.83;;
75858;SDS011;64504;51.308;8.620;2022-11-21T06:55:21;1.40;;;1.30;;
75858;SDS011;64504;51.308;8.620;2022-11-21T06:57:47;1.88;;;1.77;;
75858;SDS011;64504;51.308;8.620;2022-11-21T07:00:14;1.92;;;1.77;;
75858;SDS011;64504;51.308;8.620;2022-11-21T07:02:40;1.85;;;1.75;;
75858;SDS011;64504;51.308;8.620;2022-11-21T07:05:05;3.22;;;2.28;;
75858;SDS011;64504;51.308;8.620;2022-11-21T07:07:31;2.45;;;2.25;;
75858;SDS011;64504;51.308;8.620;2022-11-21T07:09:57;4.70;;;2.53;;
75858;SDS011;64504;51.308;8.620;2022-11-21T07:12:22;2.30;;;1.52;;
75858;SDS011;64504;51.308;8.620;2022-11-21T07:15:07;1.25;;;1.15;;
75858;SDS011;64504;51.308;8.620;2022-11-21T07:17:33;1.85;;;1.75;;
75858;SDS011;64504;51.308;8.620;2022-11-21T07:19:59;1.80;;;1.70;;
75858;SDS011;64504;51.308;8.620;2022-11-21T07:22:24;2.45;;;2.25;;
75858;SDS011;64504;51.308;8.620;2022-11-21T07:24:51;1.85;;;1.73;;
75858;SDS011;64504;51.308;8.620;2022-11-21T07:27:16;2.38;;;1.88;;
75858;SDS011;64504;51.308;8.620;2022-11-21T07:29:42;2.17;;;1.92;;
75858;SDS011;64504;51.308;8.620;2022-11-21T07:32:07;3.38;;;2.25;;
75858;SDS011;64504;51.308;8.620;2022-11-21T07:34:33;1.60;;;1.50;;
75858;SDS011;64504;51.308;8.620;2022-11-21T07:36:59;2.85;;;2.63;;
75858;SDS011;64504;51.308;8.620;2022-11-21T07:39:24;2.28;;;1.98;;
75858;SDS011;64504;51.308;8.620;2022-11-21T07:41:50;3.22;;;2.05;;
75858;SDS011;64504;51.308;8.620;2022-11-21T07:44:15;2.83;;;2.33;;
75858;SDS011;64504;51.308;8.620;2022-11-21T07:46:41;2.65;;;2.30;;
75858;SDS011;64504;51.308;8.620;2022-11-21T07:49:06;3.70;;;3.10;;
75858;SDS011;64504;51.308;8.620;2022-11-21T07:51:31;3.15;;;2.83;;
75858;SDS011;64504;51.308;8.620;2022-11-21T07:53:57;4.15;;;2.45;;
75858;SDS011;64504;51.308;8.620;2022-11-21T07:56:22;2.88;;;2.60;;
75858;SDS011;64504;51.308;8.620;2022-11-21T07:58:51;2.65;;;2.45;;
75858;SDS011;64504;51.308;8.620;2022-11-21T08:01:17;2.17;;;1.98;;
75858;SDS011;64504;51.308;8.620;2022-11-21T08:03:42;6.05;;;2.33;;
75858;SDS011;64504;51.308;8.620;2022-11-21T08:06:08;3.50;;;2.47;;
75858;SDS011;64504;51.308;8.620;2022-11-21T08:08:34;4.25;;;3.47;;
75858;SDS011;64504;51.308;8.620;2022-11-21T08:11:02;11.95;;;6.40;;
75858;SDS011;64504;51.308;8.620;2022-11-21T08:13:29;6.05;;;5.05;;
75858;SDS011;64504;51.308;8.620;2022-11-21T08:15:54;4.60;;;3.80;;
75858;SDS011;64504;51.308;8.620;2022-11-21T08:18:20;6.25;;;3.53;;
75858;SDS011;64504;51.308;8.620;2022-11-21T08:20:45;4.38;;;3.10;;
75858;SDS011;64504;51.308;8.620;2022-11-21T08:23:11;6.60;;;4.07;;
75858;SDS011;64504;51.308;8.620;2022-11-21T08:25:39;4.20;;;3.80;;
75858;SDS011;64504;51.308;8.620;2022-11-21T08:28:05;4.40;;;3.58;;
75858;SDS011;64504;51.308;8.620;2022-11-21T08:30:32;4.13;;;2.95;;
75858;SDS011;64504;51.308;8.620;2022-11-21T08:32:58;4.55;;;2.45;;
75858;SDS011;64504;51.308;8.620;2022-11-21T08:35:25;7.43;;;4.78;;
75858;SDS011;64504;51.308;8.620;2022-11-21T08:37:58;3.55;;;3.25;;
75858;SDS011;64504;51.308;8.620;2022-11-21T08:40:25;4.78;;;4.30;;
75858;SDS011;64504;51.308;8.620;2022-11-21T08:45:33;4.43;;;3.22;;
75858;SDS011;64504;51.308;8.620;2022-11-21T08:48:00;4.07;;;3.58;;
75858;SDS011;64504;51.308;8.620;2022-11-21T08:50:25;6.78;;;3.72;;
75858;SDS011;64504;51.308;8.620;2022-11-21T08:52:52;2.60;;;2.25;;
75858;SDS011;64504;51.308;8.620;2022-11-21T08:55:23;3.13;;;2.83;;
75858;SDS011;64504;51.308;8.620;2022-11-21T08:57:48;4.10;;;3.42;;
75858;SDS011;64504;51.308;8.620;2022-11-21T09:00:14;4.90;;;3.28;;
75858;SDS011;64504;51.308;8.620;2022-11-21T09:02:39;3.33;;;3.03;;
75858;SDS011;64504;51.308;8.620;2022-11-21T09:05:05;4.65;;;3.97;;
75858;SDS011;64504;51.308;8.620;2022-11-21T09:07:31;5.45;;;4.78;;
75858;SDS011;64504;51.308;8.620;2022-11-21T09:09:57;4.72;;;4.32;;
75858;SDS011;64504;51.308;8.620;2022-11-21T09:12:22;6.90;;;6.20;;
75858;SDS011;64504;51.308;8.620;2022-11-21T09:14:48;6.85;;;5.55;;
75858;SDS011;64504;51.308;8.620;2022-11-21T09:17:31;7.72;;;5.15;;
75858;SDS011;64504;51.308;8.620;2022-11-21T09:20:16;4.68;;;4.15;;
75858;SDS011;64504;51.308;8.620;2022-11-21T09:22:41;5.70;;;5.10;;
75858;SDS011;64504;51.308;8.620;2022-11-21T09:25:06;5.15;;;4.20;;
75858;SDS011;64504;51.308;8.620;2022-11-21T09:27:32;4.65;;;4.13;;
75858;SDS011;64504;51.308;8.620;2022-11-21T09:29:57;8.00;;;5.47;;
75858;SDS011;64504;51.308;8.620;2022-11-21T09:32:23;5.50;;;3.67;;
75858;SDS011;64504;51.308;8.620;2022-11-21T09:34:48;5.30;;;4.32;;
75858;SDS011;64504;51.308;8.620;2022-11-21T09:37:14;5.15;;;4.68;;
75858;SDS011;64504;51.308;8.620;2022-11-21T09:39:39;4.60;;;3.58;;
75858;SDS011;64504;51.308;8.620;2022-11-21T09:42:22;5.10;;;3.75;;
75858;SDS011;64504;51.308;8.620;2022-11-21T09:52:43;8.60;;;5.68;;
75858;SDS011;64504;51.308;8.620;2022-11-21T09:57:49;11.93;;;7.30;;
75858;SDS011;64504;51.308;8.620;2022-11-21T10:00:20;7.95;;;5.05;;
75858;SDS011;64504;51.308;8.620;2022-11-21T10:02:47;9.00;;;6.90;;
75858;SDS011;64504;51.308;8.620;2022-11-21T10:05:13;6.85;;;5.90;;
75858;SDS011;64504;51.308;8.620;2022-11-21T10:07:39;14.15;;;6.85;;
75858;SDS011;64504;51.308;8.620;2022-11-21T10:21:51;9.60;;;8.35;;
75858;SDS011;64504;51.308;8.620;2022-11-21T10:29:41;13.02;;;8.77;;
75858;SDS011;64504;51.308;8.620;2022-11-21T10:32:19;11.48;;;8.60;;
75858;SDS011;64504;51.308;8.620;2022-11-21T10:34:50;13.05;;;9.35;;
75858;SDS011;64504;51.308;8.620;2022-11-21T10:37:37;19.63;;;12.20;;
75858;SDS011;64504;51.308;8.620;2022-11-21T10:40:08;20.55;;;11.82;;
75858;SDS011;64504;51.308;8.620;2022-11-21T10:42:59;11.45;;;8.23;;
75858;SDS011;64504;51.308;8.620;2022-11-21T10:45:45;10.52;;;8.75;;
75858;SDS011;64504;51.308;8.620;2022-11-21T10:48:10;9.85;;;8.10;;
75858;SDS011;64504;51.308;8.620;2022-11-21T10:50:41;10.13;;;8.55;;
75858;SDS011;64504;51.308;8.620;2022-11-21T10:58:48;14.88;;;10.20;;
75858;SDS011;64504;51.308;8.620;2022-11-21T11:01:25;17.80;;;8.43;;
75858;SDS011;64504;51.308;8.620;2022-11-21T11:06:33;17.00;;;10.50;;
75858;SDS011;64504;51.308;8.620;2022-11-21T11:09:00;16.95;;;11.60;;
75858;SDS011;64504;51.308;8.620;2022-11-21T11:11:27;13.38;;;9.25;;
75858;SDS011;64504;51.308;8.620;2022-11-21T11:13:57;10.90;;;8.68;;
75858;SDS011;64504;51.308;8.620;2022-11-21T11:16:27;12.45;;;7.97;;
75858;SDS011;64504;51.308;8.620;2022-11-21T11:18:58;16.33;;;10.20;;
75858;SDS011;64504;51.308;8.620;2022-11-21T11:21:46;12.38;;;9.55;;
75858;SDS011;64504;51.308;8.620;2022-11-21T11:29:17;18.63;;;12.20;;
75858;SDS011;64504;51.308;8.620;2022-11-21T11:34:27;20.77;;;9.23;;
75858;SDS011;64504;51.308;8.620;2022-11-21T11:37:26;14.60;;;8.98;;
75858;SDS011;64504;51.308;8.620;2022-11-21T11:40:12;9.57;;;8.45;;
75858;SDS011;64504;51.308;8.620;2022-11-21T11:42:52;10.23;;;7.47;;
75858;SDS011;64504;51.308;8.620;2022-11-21T11:49:09;14.23;;;10.38;;
75858;SDS011;64504;51.308;8.620;2022-11-21T11:52:13;11.07;;;7.93;;
75858;SDS011;64504;51.308;8.620;2022-11-21T11:54:33;12.05;;;8.88;;
75858;SDS011;64504;51.308;8.620;2022-11-21T11:57:05;11.95;;;9.90;;
75858;SDS011;64504;51.308;8.620;2022-11-21T11:59:32;10.32;;;8.13;;
75858;SDS011;64504;51.308;8.620;2022-11-21T12:04:47;13.87;;;10.23;;
75858;SDS011;64504;51.308;8.620;2022-11-21T12:07:35;10.57;;;8.48;;
75858;SDS011;64504;51.308;8.620;2022-11-21T12:10:04;9.23;;;7.25;;
75858;SDS011;64504;51.308;8.620;2022-11-21T12:13:12;12.60;;;8.02;;
75858;SDS011;64504;51.308;8.620;2022-11-21T12:15:37;7.80;;;6.97;;
75858;SDS011;64504;51.308;8.620;2022-11-21T12:23:27;11.35;;;6.82;;
75858;SDS011;64504;51.308;8.620;2022-11-21T12:42:21;9.27;;;6.25;;
75858;SDS011;64504;51.308;8.620;2022-11-21T12:45:17;12.48;;;6.60;;
75858;SDS011;64504;51.308;8.620;2022-11-21T12:57:08;17.25;;;8.50;;
75858;SDS011;64504;51.308;8.620;2022-11-21T13:05:29;11.07;;;7.18;;
75858;SDS011;64504;51.308;8.620;2022-11-21T13:08:08;14.88;;;8.43;;
75858;SDS011;64504;51.308;8.620;2022-11-21T13:10:36;8.02;;;5.93;;
75858;SDS011;64504;51.308;8.620;2022-11-21T13:15:47;7.78;;;5.45;;
75858;SDS011;64504;51.308;8.620;2022-11-21T13:20:50;8.10;;;5.43;;
75858;SDS011;64504;51.308;8.620;2022-11-21T13:26:01;7.32;;;5.38;;
75858;SDS011;64504;51.308;8.620;2022-11-21T13:28:30;6.85;;;4.53;;
75858;SDS011;64504;51.308;8.620;2022-11-21T13:30:58;4.90;;;3.97;;
75858;SDS011;64504;51.308;8.620;2022-11-21T13:36:33;8.00;;;5.55;;
75858;SDS011;64504;51.308;8.620;2022-11-21T13:47:04;9.93;;;4.55;;
75858;SDS011;64504;51.308;8.620;2022-11-21T13:52:24;9.30;;;6.15;;
75858;SDS011;64504;51.308;8.620;2022-11-21T14:00:27;11.20;;;6.18;;
75858;SDS011;64504;51.308;8.620;2022-11-21T14:05:36;11.45;;;5.18;;
75858;SDS011;64504;51.308;8.620;2022-11-21T14:08:24;6.40;;;5.80;;
75858;SDS011;64504;51.308;8.620;2022-11-21T14:10:52;7.18;;;5.22;;
75858;SDS011;64504;51.308;8.620;2022-11-21T14:13:29;6.78;;;4.97;;
75858;SDS011;64504;51.308;8.620;2022-11-21T14:16:15;7.10;;;4.30;;
75858;SDS011;64504;51.308;8.620;2022-11-21T14:18:56;9.57;;;4.63;;
75858;SDS011;64504;51.308;8.620;2022-11-21T14:21:25;6.15;;;4.35;;
75858;SDS011;64504;51.308;8.620;2022-11-21T14:24:00;6.70;;;4.63;;
75858;SDS011;64504;51.308;8.620;2022-11-21T14:26:33;7.00;;;4.65;;
75858;SDS011;64504;51.308;8.620;2022-11-21T14:29:16;4.72;;;3.75;;
75858;SDS011;64504;51.308;8.620;2022-11-21T14:32:00;5.03;;;4.20;;
75858;SDS011;64504;51.308;8.620;2022-11-21T14:34:26;9.23;;;4.82;;
75858;SDS011;64504;51.308;8.620;2022-11-21T14:36:53;5.82;;;4.47;;
75858;SDS011;64504;51.308;8.620;2022-11-21T14:39:20;11.27;;;5.05;;
75858;SDS011;64504;51.308;8.620;2022-11-21T14:41:56;14.32;;;5.88;;
75858;SDS011;64504;51.308;8.620;2022-11-21T14:44:23;11.35;;;5.85;;
75858;SDS011;64504;51.308;8.620;2022-11-21T14:46:51;7.60;;;6.07;;
75858;SDS011;64504;51.308;8.620;2022-11-21T14:49:27;4.28;;;3.90;;
75858;SDS011;64504;51.308;8.620;2022-11-21T14:57:23;16.50;;;6.00;;
75858;SDS011;64504;51.308;8.620;2022-11-21T14:59:50;4.80;;;3.97;;
75858;SDS011;64504;51.308;8.620;2022-11-21T15:02:23;7.25;;;4.78;;
75858;SDS011;64504;51.308;8.620;2022-11-21T15:04:51;5.53;;;3.67;;
75858;SDS011;64504;51.308;8.620;2022-11-21T15:07:27;3.65;;;3.33;;
75858;SDS011;64504;51.308;8.620;2022-11-21T15:12:22;6.67;;;3.87;;
75858;SDS011;64504;51.308;8.620;2022-11-21T15:14:49;4.63;;;4.22;;
75858;SDS011;64504;51.308;8.620;2022-11-21T15:17:20;7.47;;;4.80;;
75858;SDS011;64504;51.308;8.620;2022-11-21T15:20:01;4.20;;;2.92;;
75858;SDS011;64504;51.308;8.620;2022-11-21T15:22:38;6.90;;;2.92;;
75858;SDS011;64504;51.308;8.620;2022-11-21T15:25:06;4.63;;;3.75;;
75858;SDS011;64504;51.308;8.620;2022-11-21T15:27:40;8.68;;;5.53;;
75858;SDS011;64504;51.308;8.620;2022-11-21T15:33:19;7.13;;;3.58;;
75858;SDS011;64504;51.308;8.620;2022-11-21T15:35:38;7.03;;;4.93;;
75858;SDS011;64504;51.308;8.620;2022-11-21T15:41:39;6.75;;;4.15;;
75858;SDS011;64504;51.308;8.620;2022-11-21T15:46:37;8.98;;;4.80;;
75858;SDS011;64504;51.308;8.620;2022-11-21T15:49:07;7.88;;;4.40;;
75858;SDS011;64504;51.308;8.620;2022-11-21T15:51:35;6.90;;;4.35;;
75858;SDS011;64504;51.308;8.620;2022-11-21T15:54:02;7.80;;;3.85;;
75858;SDS011;64504;51.308;8.620;2022-11-21T15:56:28;4.93;;;3.53;;
75858;SDS011;64504;51.308;8.620;2022-11-21T15:58:54;6.25;;;4.68;;
75858;SDS011;64504;51.308;8.620;2022-11-21T16:01:20;5.05;;;4.13;;
75858;SDS011;64504;51.308;8.620;2022-11-21T16:03:50;4.55;;;4.10;;
75858;SDS011;64504;51.308;8.620;2022-11-21T16:06:17;8.07;;;3.47;;
75858;SDS011;64504;51.308;8.620;2022-11-21T16:08:43;4.10;;;3.20;;
75858;SDS011;64504;51.308;8.620;2022-11-21T16:11:25;2.58;;;2.40;;
75858;SDS011;64504;51.308;8.620;2022-11-21T16:13:52;5.85;;;4.03;;
75858;SDS011;64504;51.308;8.620;2022-11-21T16:16:22;6.60;;;4.53;;
75858;SDS011;64504;51.308;8.620;2022-11-21T16:18:49;5.35;;;3.97;;
75858;SDS011;64504;51.308;8.620;2022-11-21T16:21:15;4.43;;;4.05;;
75858;SDS011;64504;51.308;8.620;2022-11-21T16:23:41;5.22;;;3.75;;
75858;SDS011;64504;51.308;8.620;2022-11-21T16:26:07;8.57;;;4.47;;
75858;SDS011;64504;51.308;8.620;2022-11-21T16:28:35;5.25;;;4.47;;
75858;SDS011;64504;51.308;8.620;2022-11-21T16:31:02;5.22;;;4.32;;
75858;SDS011;64504;51.308;8.620;2022-11-21T16:33:28;15.45;;;4.63;;
75858;SDS011;64504;51.308;8.620;2022-11-21T16:35:55;4.80;;;3.90;;
75858;SDS011;64504;51.308;8.620;2022-11-21T16:38:24;5.38;;;4.88;;
75858;SDS011;64504;51.308;8.620;2022-11-21T16:40:55;13.85;;;3.75;;
75858;SDS011;64504;51.308;8.620;2022-11-21T16:43:24;5.78;;;5.20;;
75858;SDS011;64504;51.308;8.620;2022-11-21T16:45:50;4.30;;;3.58;;
75858;SDS011;64504;51.308;8.620;2022-11-21T16:48:17;6.70;;;3.38;;
75858;SDS011;64504;51.308;8.620;2022-11-21T16:50:44;5.82;;;2.55;;
75858;SDS011;64504;51.308;8.620;2022-11-21T16:53:09;2.47;;;1.25;;
75858;SDS011;64504;51.308;8.620;2022-11-21T16:55:35;3.92;;;2.78;;
75858;SDS011;64504;51.308;8.620;2022-11-21T16:58:01;5.57;;;2.40;;
75858;SDS011;64504;51.308;8.620;2022-11-21T17:00:27;6.22;;;3.47;;
75858;SDS011;64504;51.308;8.620;2022-11-21T17:02:53;3.47;;;2.88;;
75858;SDS011;64504;51.308;8.620;2022-11-21T17:05:19;3.20;;;2.97;;
75858;SDS011;64504;51.308;8.620;2022-11-21T17:07:45;8.90;;;3.45;;
75858;SDS011;64504;51.308;8.620;2022-11-21T17:10:11;3.95;;;3.50;;
75858;SDS011;64504;51.308;8.620;2022-11-21T17:12:38;2.78;;;2.58;;
75858;SDS011;64504;51.308;8.620;2022-11-21T17:15:05;3.80;;;3.15;;
75858;SDS011;64504;51.308;8.620;2022-11-21T17:17:31;5.75;;;4.55;;